Hartsgrove, Ohio
Current Conditions -  °F | °C
As of 6:32 PM on Saturday 22 Nov 2014 (Local Time) from KHZY Reporting Station
Overcast Overcast  
Wind Chill: 36°   Ceiling: 3000
Heat Index: 42°   Visibility: 10mi
Dew Point: 34°   Wind: 10mph
Humidity: 73%   Direction: 200°SSW
Pressure: 30.06"   Gusts: NA
Location:  41.6051°N, 80.867°W
Report Text: KHZY 222332Z AUTO 20009KT 10SM OVC030 06/01 A3006 RMK AO2 T00560011
Loading
Personal Weather Stations






























Interactive Weather Map New forecast layout! Learn more

10-Day Weather Forecast

Advertisements
Track Severe Weather on mobile